Time;durP1;ratioP1;P1;durP2;ratioP2;P2;SDS_P1;SDS_P2;PMS_P1;PMS_P2;Temp;Humidity;BMP_temperature;BMP_pressure;BME280_temperature;BME280_humidity;BME280_pressure;Samples;Min_cycle;Max_cycle;Signal;HPM_P1;HPM_P2
2021/04/23 00:00:12;;;;;;;12.38;7.30;;;;;;;;;;4898085;29;20025;-68
2021/04/23 00:02:39;;;;;;;11.35;7.38;;;;;;;;;;4895533;29;20043;-69
2021/04/23 00:05:05;;;;;;;15.38;7.85;;;;;;;;;;4891082;29;20033;-67
2021/04/23 00:07:31;;;;;;;9.57;6.60;;;;;;;;;;4874948;29;20040;-69
2021/04/23 00:09:57;;;;;;;12.73;7.32;;;;;;;;;;4898327;29;20033;-68
2021/04/23 00:12:23;;;;;;;10.55;7.28;;;;;;;;;;4881790;29;20072;-69
2021/04/23 00:14:50;;;;;;;9.80;6.60;;;;;;;;;;4898821;29;20492;-68
2021/04/23 00:17:17;;;;;;;11.80;8.27;;;;;;;;;;4898656;29;20523;-70
2021/04/23 00:19:45;;;;;;;15.32;10.43;;;;;;;;;;4898818;29;20033;-65
2021/04/23 00:22:11;;;;;;;18.77;12.65;;;;;;;;;;4898497;29;20029;-67
2021/04/23 00:24:38;;;;;;;18.05;12.35;;;;;;;;;;4898339;29;20557;-68
2021/04/23 00:27:05;;;;;;;19.67;13.70;;;;;;;;;;4898436;29;20037;-68
2021/04/23 00:29:31;;;;;;;19.98;13.40;;;;;;;;;;4898366;29;20381;-66
2021/04/23 00:34:43;;;;;;;22.73;15.00;;;;;;;;;;4898375;29;20047;-67
2021/04/23 00:37:09;;;;;;;20.67;14.07;;;;;;;;;;4880623;29;20052;-69
2021/04/23 00:39:36;;;;;;;19.63;14.80;;;;;;;;;;4898262;29;20024;-69
2021/04/23 00:42:02;;;;;;;25.35;15.40;;;;;;;;;;4898188;29;20035;-67
2021/04/23 00:44:28;;;;;;;28.35;16.23;;;;;;;;;;4898373;29;20036;-69
2021/04/23 00:46:54;;;;;;;24.50;15.70;;;;;;;;;;4897345;29;20060;-68
2021/04/23 00:49:21;;;;;;;21.38;15.75;;;;;;;;;;4898344;29;20020;-69
2021/04/23 00:51:58;;;;;;;22.30;15.75;;;;;;;;;;4898081;29;20392;-68
2021/04/23 00:54:25;;;;;;;23.05;14.88;;;;;;;;;;4898101;29;20044;-68
2021/04/23 00:56:51;;;;;;;21.02;15.18;;;;;;;;;;4898070;29;20036;-68
2021/04/23 00:59:18;;;;;;;23.23;15.52;;;;;;;;;;4898091;29;20021;-69
2021/04/23 01:01:47;;;;;;;24.05;15.15;;;;;;;;;;4898011;29;20047;-66
2021/04/23 01:04:14;;;;;;;20.63;13.93;;;;;;;;;;4898001;29;20111;-69
2021/04/23 01:06:40;;;;;;;21.10;15.15;;;;;;;;;;4897889;29;20103;-65
2021/04/23 01:09:12;;;;;;;21.15;15.00;;;;;;;;;;4897781;29;20032;-69
2021/04/23 01:11:38;;;;;;;20.77;14.98;;;;;;;;;;4898796;29;20029;-69
2021/04/23 01:14:05;;;;;;;21.20;14.32;;;;;;;;;;4899840;29;20029;-66
2021/04/23 01:16:31;;;;;;;20.67;15.05;;;;;;;;;;4897563;29;20119;-68
2021/04/23 01:18:58;;;;;;;22.33;15.40;;;;;;;;;;4897686;29;20036;-67
2021/04/23 01:21:25;;;;;;;24.33;16.70;;;;;;;;;;4880586;29;20483;-68
2021/04/23 01:23:52;;;;;;;26.63;17.85;;;;;;;;;;4897435;29;20052;-68
2021/04/23 01:26:20;;;;;;;25.83;17.83;;;;;;;;;;4897681;29;20036;-65
2021/04/23 01:28:47;;;;;;;27.73;18.55;;;;;;;;;;4897548;29;20169;-70
2021/04/23 01:31:15;;;;;;;27.60;18.42;;;;;;;;;;4897484;29;20039;-67
2021/04/23 01:33:42;;;;;;;28.38;18.70;;;;;;;;;;4897078;29;20061;-68
2021/04/23 01:36:09;;;;;;;25.90;18.55;;;;;;;;;;4897097;29;20045;-69
2021/04/23 01:38:37;;;;;;;25.30;19.08;;;;;;;;;;4897418;29;20025;-69
2021/04/23 01:41:03;;;;;;;27.85;19.10;;;;;;;;;;4880041;29;20048;-67
2021/04/23 01:43:29;;;;;;;31.58;20.52;;;;;;;;;;4897127;29;20025;-65
2021/04/23 01:45:55;;;;;;;31.63;21.13;;;;;;;;;;4897187;29;20028;-68
2021/04/23 01:48:21;;;;;;;32.13;22.75;;;;;;;;;;4897141;29;20088;-64
2021/04/23 01:50:47;;;;;;;35.47;23.58;;;;;;;;;;4897161;29;20087;-69
2021/04/23 01:53:15;;;;;;;34.60;23.15;;;;;;;;;;4897195;29;20029;-68
2021/04/23 01:55:41;;;;;;;33.90;22.98;;;;;;;;;;4897102;29;20036;-67
2021/04/23 01:58:07;;;;;;;36.17;24.05;;;;;;;;;;4896396;29;20033;-67
2021/04/23 02:00:35;;;;;;;36.35;24.25;;;;;;;;;;4896373;29;20056;-69
2021/04/23 02:03:03;;;;;;;38.58;24.48;;;;;;;;;;4896670;29;20041;-69
2021/04/23 02:05:29;;;;;;;36.35;23.77;;;;;;;;;;4896705;29;20032;-69
2021/04/23 02:07:56;;;;;;;34.28;24.00;;;;;;;;;;4896778;29;20143;-69
2021/04/23 02:10:25;;;;;;;35.33;24.27;;;;;;;;;;4896763;29;20063;-68
2021/04/23 02:12:51;;;;;;;36.28;23.75;;;;;;;;;;4896758;29;20540;-66
2021/04/23 02:15:18;;;;;;;35.30;23.42;;;;;;;;;;4896512;29;20045;-68
2021/04/23 02:17:44;;;;;;;33.97;22.33;;;;;;;;;;4896371;29;20048;-67
2021/04/23 02:20:13;;;;;;;31.02;20.75;;;;;;;;;;4896500;29;20025;-65
2021/04/23 02:22:40;;;;;;;35.13;22.63;;;;;;;;;;4896477;29;20056;-64
2021/04/23 02:25:06;;;;;;;35.60;22.83;;;;;;;;;;4896227;29;20029;-66
2021/04/23 02:27:32;;;;;;;32.38;22.30;;;;;;;;;;4896447;29;20096;-66
2021/04/23 02:29:58;;;;;;;35.42;23.58;;;;;;;;;;4896246;29;20029;-67
2021/04/23 02:32:25;;;;;;;37.22;24.60;;;;;;;;;;4895825;29;20404;-64
2021/04/23 02:34:51;;;;;;;35.70;24.45;;;;;;;;;;4879211;29;20097;-64
2021/04/23 02:37:17;;;;;;;38.90;26.13;;;;;;;;;;4896097;29;20484;-66
2021/04/23 02:39:43;;;;;;;35.95;24.17;;;;;;;;;;4896081;29;20036;-66
2021/04/23 02:42:09;;;;;;;40.63;25.90;;;;;;;;;;4896152;29;20103;-66
2021/04/23 02:44:35;;;;;;;37.58;25.67;;;;;;;;;;4896055;29;20029;-69
2021/04/23 02:47:02;;;;;;;37.13;25.85;;;;;;;;;;4896171;29;20481;-68
2021/04/23 02:49:28;;;;;;;38.78;26.45;;;;;;;;;;4896093;29;20028;-64
2021/04/23 02:51:54;;;;;;;38.40;27.05;;;;;;;;;;4896195;29;20032;-70
2021/04/23 02:54:21;;;;;;;39.05;27.30;;;;;;;;;;4896057;29;20060;-68
2021/04/23 02:56:48;;;;;;;42.30;27.55;;;;;;;;;;4895896;29;20404;-71
2021/04/23 02:59:14;;;;;;;40.53;25.88;;;;;;;;;;4895952;29;20028;-68
2021/04/23 03:01:41;;;;;;;38.17;25.80;;;;;;;;;;4896125;29;20051;-69
2021/04/23 03:04:07;;;;;;;42.70;27.23;;;;;;;;;;4896096;29;20032;-69
2021/04/23 03:06:34;;;;;;;42.35;28.27;;;;;;;;;;4895816;29;20108;-69
2021/04/23 03:09:00;;;;;;;40.72;26.90;;;;;;;;;;4895805;29;20489;-69
2021/04/23 03:11:27;;;;;;;38.08;25.70;;;;;;;;;;4895555;29;20059;-68
2021/04/23 03:13:54;;;;;;;37.83;26.35;;;;;;;;;;4895733;29;20107;-70
2021/04/23 03:16:20;;;;;;;43.25;26.85;;;;;;;;;;4895517;29;20128;-70
2021/04/23 03:18:47;;;;;;;42.22;27.63;;;;;;;;;;4895613;29;20044;-69
2021/04/23 03:21:14;;;;;;;38.83;26.50;;;;;;;;;;4895814;29;20429;-68
2021/04/23 03:23:41;;;;;;;40.13;26.50;;;;;;;;;;4895658;29;20040;-68
2021/04/23 03:26:07;;;;;;;40.00;26.23;;;;;;;;;;4895525;29;20104;-68
2021/04/23 03:28:34;;;;;;;35.05;24.17;;;;;;;;;;4895665;29;20504;-69
2021/04/23 03:31:00;;;;;;;36.30;22.77;;;;;;;;;;4895419;29;20033;-69
2021/04/23 03:33:27;;;;;;;35.33;24.55;;;;;;;;;;4895285;29;20057;-69
2021/04/23 03:35:55;;;;;;;32.63;22.83;;;;;;;;;;4895294;29;20450;-70
2021/04/23 03:38:22;;;;;;;33.40;21.85;;;;;;;;;;4895585;29;20033;-69
2021/04/23 03:40:48;;;;;;;33.38;20.73;;;;;;;;;;4878410;29;20028;-69
2021/04/23 03:43:15;;;;;;;30.02;20.42;;;;;;;;;;4895477;29;20500;-69
2021/04/23 03:45:41;;;;;;;28.77;19.00;;;;;;;;;;4895484;29;20033;-69
2021/04/23 03:48:08;;;;;;;29.45;18.38;;;;;;;;;;4895372;29;20036;-69
2021/04/23 03:50:35;;;;;;;28.30;19.60;;;;;;;;;;4895504;29;20028;-69
2021/04/23 03:53:04;;;;;;;30.92;20.38;;;;;;;;;;4895396;29;20028;-69
2021/04/23 03:55:32;;;;;;;30.00;19.48;;;;;;;;;;4878561;29;20048;-69
2021/04/23 03:57:59;;;;;;;26.83;18.85;;;;;;;;;;4895436;29;20058;-69
2021/04/23 04:00:26;;;;;;;27.17;18.70;;;;;;;;;;4895417;29;20033;-69
2021/04/23 04:02:52;;;;;;;27.95;18.42;;;;;;;;;;4894977;29;20115;-69
2021/04/23 04:05:19;;;;;;;28.58;20.55;;;;;;;;;;4895421;29;20121;-69
2021/04/23 04:07:45;;;;;;;29.65;19.85;;;;;;;;;;4895422;29;20021;-69
2021/04/23 04:10:11;;;;;;;32.28;21.20;;;;;;;;;;4894934;29;20085;-69
2021/04/23 04:12:37;;;;;;;30.45;19.80;;;;;;;;;;4895260;29;20122;-69
2021/04/23 04:15:04;;;;;;;32.22;20.85;;;;;;;;;;4895392;29;20497;-70
2021/04/23 04:17:30;;;;;;;28.00;18.58;;;;;;;;;;4895049;29;20036;-70
2021/04/23 04:19:56;;;;;;;28.73;18.40;;;;;;;;;;4895330;29;20101;-66
2021/04/23 04:22:23;;;;;;;26.70;18.40;;;;;;;;;;4896139;29;20036;-68
2021/04/23 04:24:49;;;;;;;30.58;17.77;;;;;;;;;;4898502;29;20040;-69
2021/04/23 04:27:17;;;;;;;27.15;17.63;;;;;;;;;;4898785;29;20029;-68
2021/04/23 04:29:44;;;;;;;27.95;18.02;;;;;;;;;;4898473;29;20025;-68
2021/04/23 04:32:10;;;;;;;30.65;18.70;;;;;;;;;;4897982;29;20449;-65
2021/04/23 04:34:36;;;;;;;27.80;17.27;;;;;;;;;;4898534;29;20132;-68
2021/04/23 04:37:02;;;;;;;31.13;17.02;;;;;;;;;;4898353;29;20047;-68
2021/04/23 04:39:28;;;;;;;22.77;15.57;;;;;;;;;;4898321;29;20028;-69
2021/04/23 04:41:54;;;;;;;23.92;16.08;;;;;;;;;;4897897;29;20032;-67
2021/04/23 04:44:20;;;;;;;21.77;15.02;;;;;;;;;;4898521;29;20040;-65
2021/04/23 04:46:46;;;;;;;22.85;14.13;;;;;;;;;;4881363;29;20033;-69
2021/04/23 04:49:13;;;;;;;21.70;13.60;;;;;;;;;;4898067;29;20103;-68
2021/04/23 04:51:39;;;;;;;21.38;14.15;;;;;;;;;;4898254;29;20083;-69
2021/04/23 04:54:06;;;;;;;22.85;14.25;;;;;;;;;;4898199;29;20039;-69
2021/04/23 04:56:32;;;;;;;23.60;13.63;;;;;;;;;;4898009;29;20084;-68
2021/04/23 04:58:58;;;;;;;22.60;12.63;;;;;;;;;;4881204;29;20442;-69
2021/04/23 05:01:24;;;;;;;22.05;12.88;;;;;;;;;;4897747;29;20104;-67
2021/04/23 05:03:50;;;;;;;19.10;12.05;;;;;;;;;;4897720;29;20064;-69
2021/04/23 05:06:18;;;;;;;21.65;13.20;;;;;;;;;;4897500;29;20505;-69
2021/04/23 05:08:44;;;;;;;25.52;14.10;;;;;;;;;;4897807;29;20057;-69
2021/04/23 05:11:10;;;;;;;21.42;13.45;;;;;;;;;;4897570;29;20442;-70
2021/04/23 05:13:36;;;;;;;19.45;12.75;;;;;;;;;;4897686;29;20033;-63
2021/04/23 05:16:02;;;;;;;20.00;13.40;;;;;;;;;;4897865;29;20029;-68
2021/04/23 05:18:28;;;;;;;21.83;13.35;;;;;;;;;;4897214;29;20029;-68
2021/04/23 05:20:55;;;;;;;23.75;13.63;;;;;;;;;;4897668;29;20024;-68
2021/04/23 05:23:21;;;;;;;20.13;13.15;;;;;;;;;;4897419;29;20033;-68
2021/04/23 05:25:47;;;;;;;22.73;12.93;;;;;;;;;;4897479;29;20028;-70
2021/04/23 05:28:13;;;;;;;18.98;11.63;;;;;;;;;;4897451;29;20025;-69
2021/04/23 05:30:39;;;;;;;21.92;13.23;;;;;;;;;;4897066;29;20052;-68
2021/04/23 05:33:07;;;;;;;23.85;13.60;;;;;;;;;;4896438;29;20045;-65
2021/04/23 05:35:33;;;;;;;24.63;12.48;;;;;;;;;;4897230;29;20032;-69
2021/04/23 05:38:00;;;;;;;25.35;12.65;;;;;;;;;;4896538;29;20112;-68
2021/04/23 05:40:28;;;;;;;21.67;11.18;;;;;;;;;;4896814;29;20033;-69
2021/04/23 05:42:54;;;;;;;20.05;12.13;;;;;;;;;;4896765;29;20037;-67
2021/04/23 05:45:20;;;;;;;21.55;11.30;;;;;;;;;;4897156;29;20088;-69
2021/04/23 05:47:47;;;;;;;21.08;11.85;;;;;;;;;;4896661;29;20119;-68
2021/04/23 05:50:14;;;;;;;21.27;11.73;;;;;;;;;;4896770;29;20069;-68
2021/04/23 05:52:40;;;;;;;20.50;11.15;;;;;;;;;;4896902;29;20517;-68
2021/04/23 05:55:07;;;;;;;20.35;11.43;;;;;;;;;;4896713;29;20051;-69
2021/04/23 05:57:33;;;;;;;17.05;10.07;;;;;;;;;;4896839;29;20044;-67
2021/04/23 06:00:00;;;;;;;20.55;10.77;;;;;;;;;;4896795;29;20033;-68
2021/04/23 06:02:28;;;;;;;17.00;10.38;;;;;;;;;;4896355;29;20036;-69
2021/04/23 06:04:54;;;;;;;19.30;10.38;;;;;;;;;;4896638;29;20028;-69
2021/04/23 06:07:20;;;;;;;21.52;10.07;;;;;;;;;;4895736;29;20041;-68
2021/04/23 06:09:46;;;;;;;18.27;9.88;;;;;;;;;;4895525;29;20039;-63
2021/04/23 06:12:12;;;;;;;18.75;10.15;;;;;;;;;;4896729;29;20032;-68
2021/04/23 06:14:38;;;;;;;19.30;11.13;;;;;;;;;;4896386;29;20060;-68
2021/04/23 06:17:05;;;;;;;18.65;11.75;;;;;;;;;;4878997;29;20405;-66
2021/04/23 06:19:32;;;;;;;18.33;10.45;;;;;;;;;;4896387;29;20024;-64
2021/04/23 06:21:58;;;;;;;19.80;10.60;;;;;;;;;;4896501;29;20036;-67
2021/04/23 06:24:24;;;;;;;21.23;11.38;;;;;;;;;;4895615;29;20128;-67
2021/04/23 06:26:50;;;;;;;20.85;11.00;;;;;;;;;;4896715;29;20105;-66
2021/04/23 06:29:16;;;;;;;21.08;11.60;;;;;;;;;;4901170;29;20048;-69
2021/04/23 06:31:43;;;;;;;23.02;12.38;;;;;;;;;;4908643;29;20420;-70
2021/04/23 06:34:09;;;;;;;19.50;12.35;;;;;;;;;;4911283;29;20568;-68
2021/04/23 06:36:35;;;;;;;24.00;12.93;;;;;;;;;;4905653;29;20116;-69
2021/04/23 06:39:01;;;;;;;17.77;11.55;;;;;;;;;;4896024;29;20044;-68
2021/04/23 06:41:27;;;;;;;23.17;12.35;;;;;;;;;;4895736;29;20044;-67
2021/04/23 06:43:54;;;;;;;21.77;13.35;;;;;;;;;;4896051;29;20037;-67
2021/04/23 06:46:20;;;;;;;22.63;12.30;;;;;;;;;;4895394;29;20025;-67
2021/04/23 06:48:50;;;;;;;23.67;11.95;;;;;;;;;;4895296;29;20380;-67
2021/04/23 06:51:16;;;;;;;18.15;9.93;;;;;;;;;;4895239;29;20017;-68
2021/04/23 06:53:42;;;;;;;20.63;10.50;;;;;;;;;;4895621;29;20028;-68
2021/04/23 06:56:08;;;;;;;21.60;10.50;;;;;;;;;;4894890;29;20024;-69
2021/04/23 06:58:34;;;;;;;19.50;10.77;;;;;;;;;;4894434;29;20033;-65
2021/04/23 07:01:00;;;;;;;21.90;10.85;;;;;;;;;;4893007;29;20043;-67
2021/04/23 07:03:26;;;;;;;17.85;9.85;;;;;;;;;;4895613;29;20041;-68
2021/04/23 07:05:54;;;;;;;21.05;10.20;;;;;;;;;;4895671;29;20029;-69
2021/04/23 07:08:20;;;;;;;20.98;10.30;;;;;;;;;;4892851;29;20136;-68
2021/04/23 07:10:46;;;;;;;21.20;10.50;;;;;;;;;;4894677;29;20029;-69
2021/04/23 07:13:13;;;;;;;19.58;10.93;;;;;;;;;;4894293;29;20033;-68
2021/04/23 07:15:39;;;;;;;23.75;10.85;;;;;;;;;;4885718;29;20504;-65
2021/04/23 07:18:06;;;;;;;24.10;12.27;;;;;;;;;;4884925;29;20036;-69
2021/04/23 07:20:32;;;;;;;24.05;11.80;;;;;;;;;;4906290;29;20087;-65
2021/04/23 07:22:58;;;;;;;18.20;10.82;;;;;;;;;;4903528;29;20032;-68
2021/04/23 07:25:25;;;;;;;19.60;10.90;;;;;;;;;;4895005;29;20476;-69
2021/04/23 07:27:51;;;;;;;17.60;10.50;;;;;;;;;;4895769;29;20032;-68
2021/04/23 07:30:22;;;;;;;21.35;11.10;;;;;;;;;;4907894;29;20167;-67
2021/04/23 07:32:49;;;;;;;21.38;10.40;;;;;;;;;;4913698;29;20056;-69
2021/04/23 07:35:15;;;;;;;18.05;10.80;;;;;;;;;;4914188;29;20071;-69
2021/04/23 07:37:41;;;;;;;21.27;11.98;;;;;;;;;;4913411;29;20050;-66
2021/04/23 07:40:08;;;;;;;18.17;11.88;;;;;;;;;;4911370;29;20480;-69
2021/04/23 07:42:34;;;;;;;22.98;12.25;;;;;;;;;;4909844;29;20036;-68
2021/04/23 07:45:02;;;;;;;22.23;11.77;;;;;;;;;;4914143;29;20500;-69
2021/04/23 07:47:28;;;;;;;21.55;12.57;;;;;;;;;;4908754;29;20020;-67
2021/04/23 07:49:54;;;;;;;20.20;11.98;;;;;;;;;;4894503;29;20389;-70
2021/04/23 07:52:20;;;;;;;22.30;12.57;;;;;;;;;;4894631;29;20112;-67
2021/04/23 07:54:46;;;;;;;22.17;12.07;;;;;;;;;;4894963;29;20032;-70
2021/04/23 07:57:12;;;;;;;20.30;10.82;;;;;;;;;;4896065;29;20052;-71
2021/04/23 07:59:39;;;;;;;21.50;12.02;;;;;;;;;;4898674;29;20021;-68
2021/04/23 08:02:05;;;;;;;23.10;11.43;;;;;;;;;;4898057;29;20037;-69
2021/04/23 08:04:33;;;;;;;19.00;11.98;;;;;;;;;;4898263;29;20032;-68
2021/04/23 08:06:59;;;;;;;23.70;12.38;;;;;;;;;;4897687;29;20076;-68
2021/04/23 08:09:25;;;;;;;25.10;12.38;;;;;;;;;;4898100;29;20021;-69
2021/04/23 08:11:52;;;;;;;19.10;11.05;;;;;;;;;;4898147;29;20119;-67
2021/04/23 08:14:18;;;;;;;22.33;11.60;;;;;;;;;;4898134;29;20388;-73
2021/04/23 08:16:44;;;;;;;22.77;12.43;;;;;;;;;;4897692;29;20697;-71
2021/04/23 08:19:10;;;;;;;22.40;13.35;;;;;;;;;;4897833;29;20033;-70
2021/04/23 08:21:36;;;;;;;22.98;13.63;;;;;;;;;;4897853;29;20097;-71
2021/04/23 08:24:03;;;;;;;20.65;12.65;;;;;;;;;;4897958;29;20068;-71
2021/04/23 08:26:29;;;;;;;24.13;12.98;;;;;;;;;;4897982;29;20020;-65
2021/04/23 08:28:55;;;;;;;25.33;13.07;;;;;;;;;;4897841;29;20031;-66
2021/04/23 08:31:22;;;;;;;27.05;14.73;;;;;;;;;;4897858;29;20032;-68
2021/04/23 08:33:48;;;;;;;25.92;14.38;;;;;;;;;;4897215;29;20548;-72
2021/04/23 08:36:14;;;;;;;26.50;13.95;;;;;;;;;;4897097;29;20441;-70
2021/04/23 08:38:41;;;;;;;24.52;14.45;;;;;;;;;;4897833;29;20035;-67
2021/04/23 08:41:08;;;;;;;24.55;14.15;;;;;;;;;;4897371;29;20029;-66
2021/04/23 08:43:35;;;;;;;24.27;12.90;;;;;;;;;;4897741;29;20396;-70
2021/04/23 08:46:01;;;;;;;24.80;13.68;;;;;;;;;;4895929;29;20111;-70
2021/04/23 08:48:28;;;;;;;24.05;13.73;;;;;;;;;;4897468;29;20052;-73
2021/04/23 08:50:54;;;;;;;21.15;12.73;;;;;;;;;;4897691;29;20050;-73
2021/04/23 08:53:21;;;;;;;25.10;13.68;;;;;;;;;;4897253;29;20031;-71
2021/04/23 08:55:47;;;;;;;28.40;13.85;;;;;;;;;;4897416;29;20396;-73
2021/04/23 08:58:14;;;;;;;25.42;13.85;;;;;;;;;;4895834;29;20056;-73
2021/04/23 09:00:40;;;;;;;27.27;15.07;;;;;;;;;;4897456;29;20025;-74
2021/04/23 09:03:08;;;;;;;22.65;13.68;;;;;;;;;;4896718;29;20044;-67
2021/04/23 09:05:34;;;;;;;24.85;12.57;;;;;;;;;;4897331;29;20073;-69
2021/04/23 09:08:05;;;;;;;24.52;13.52;;;;;;;;;;4896607;29;20040;-73
2021/04/23 09:10:31;;;;;;;18.60;11.23;;;;;;;;;;4897369;29;20425;-68
2021/04/23 09:13:08;;;;;;;18.85;10.95;;;;;;;;;;4897266;29;20036;-71
2021/04/23 09:15:35;;;;;;;27.42;10.50;;;;;;;;;;4896977;29;20032;-70
2021/04/23 09:18:05;;;;;;;16.20;10.25;;;;;;;;;;4895608;29;20401;-69
2021/04/23 09:20:31;;;;;;;25.60;11.50;;;;;;;;;;4897331;29;20032;-69
2021/04/23 09:23:23;;;;;;;20.20;10.88;;;;;;;;;;4896812;29;20103;-69
2021/04/23 09:25:50;;;;;;;20.88;9.90;;;;;;;;;;4893119;29;20108;-66
2021/04/23 09:28:32;;;;;;;21.48;9.88;;;;;;;;;;4896339;29;20104;-71
2021/04/23 09:30:58;;;;;;;18.33;9.98;;;;;;;;;;4896444;29;20080;-68
2021/04/23 09:33:27;;;;;;;14.50;8.07;;;;;;;;;;4896149;29;20124;-68
2021/04/23 09:35:54;;;;;;;16.73;8.50;;;;;;;;;;4896585;29;20401;-70
2021/04/23 09:38:20;;;;;;;15.20;8.10;;;;;;;;;;4896125;29;20077;-70
2021/04/23 09:40:46;;;;;;;17.23;7.55;;;;;;;;;;4896430;29;20079;-72
2021/04/23 09:43:12;;;;;;;13.95;7.18;;;;;;;;;;4896315;29;20092;-71
2021/04/23 09:45:48;;;;;;;16.33;8.80;;;;;;;;;;4896655;29;20028;-69
2021/04/23 09:48:21;;;;;;;18.13;9.70;;;;;;;;;;4894827;29;20024;-72
2021/04/23 09:50:47;;;;;;;17.25;9.48;;;;;;;;;;4895923;29;20041;-69
2021/04/23 09:53:13;;;;;;;16.55;9.15;;;;;;;;;;4896330;29;20370;-70
2021/04/23 09:55:39;;;;;;;20.08;9.27;;;;;;;;;;4896272;29;20076;-69
2021/04/23 09:58:07;;;;;;;18.17;10.13;;;;;;;;;;4895542;29;20087;-67
2021/04/23 10:00:35;;;;;;;18.33;11.23;;;;;;;;;;4896095;29;20032;-70
2021/04/23 10:03:02;;;;;;;23.13;11.02;;;;;;;;;;4895228;29;20040;-70
2021/04/23 10:05:28;;;;;;;20.15;10.00;;;;;;;;;;4895479;29;20033;-70
2021/04/23 10:07:54;;;;;;;17.80;8.52;;;;;;;;;;4896022;29;20032;-65
2021/04/23 10:10:21;;;;;;;23.65;9.57;;;;;;;;;;4898197;29;20028;-68
2021/04/23 10:12:53;;;;;;;16.98;8.50;;;;;;;;;;4914714;29;20229;-70
2021/04/23 10:15:29;;;;;;;17.08;9.38;;;;;;;;;;4914541;29;20039;-68
2021/04/23 10:18:00;;;;;;;24.05;9.23;;;;;;;;;;4914543;29;20036;-71
2021/04/23 10:20:28;;;;;;;18.38;9.98;;;;;;;;;;4913793;29;20032;-68
2021/04/23 10:22:54;;;;;;;19.90;10.57;;;;;;;;;;4914829;29;20024;-68
2021/04/23 10:25:21;;;;;;;18.00;10.50;;;;;;;;;;4914501;29;20035;-69
2021/04/23 10:27:48;;;;;;;18.70;10.02;;;;;;;;;;4914067;29;20066;-68
2021/04/23 10:30:16;;;;;;;24.27;9.10;;;;;;;;;;4913955;29;20539;-74
2021/04/23 10:32:47;;;;;;;20.13;9.63;;;;;;;;;;4914486;29;20226;-65
2021/04/23 10:35:15;;;;;;;18.77;8.98;;;;;;;;;;4913880;29;20036;-67
2021/04/23 10:37:42;;;;;;;15.98;9.40;;;;;;;;;;4913183;29;20045;-65
2021/04/23 10:40:09;;;;;;;21.52;9.00;;;;;;;;;;4913342;29;20176;-70
2021/04/23 10:42:51;;;;;;;21.08;10.02;;;;;;;;;;4914047;29;20028;-66
2021/04/23 10:45:20;;;;;;;16.73;8.15;;;;;;;;;;4914518;29;20036;-65
2021/04/23 10:47:47;;;;;;;16.67;7.57;;;;;;;;;;4914435;29;20472;-68
2021/04/23 10:50:17;;;;;;;14.88;7.78;;;;;;;;;;4914327;29;20036;-66
2021/04/23 10:53:00;;;;;;;19.60;7.18;;;;;;;;;;4913890;29;20026;-67
2021/04/23 10:55:40;;;;;;;20.13;7.80;;;;;;;;;;4912519;29;20110;-68
2021/04/23 10:58:06;;;;;;;17.98;7.38;;;;;;;;;;4913726;29;20044;-69
2021/04/23 11:00:34;;;;;;;26.15;8.85;;;;;;;;;;4914023;29;20472;-69
2021/04/23 11:03:19;;;;;;;17.63;7.47;;;;;;;;;;4912190;29;20032;-68
2021/04/23 11:05:45;;;;;;;19.85;8.05;;;;;;;;;;4913736;29;20043;-67
2021/04/23 11:08:12;;;;;;;22.90;9.02;;;;;;;;;;4913703;29;20483;-67
2021/04/23 11:10:58;;;;;;;19.00;7.93;;;;;;;;;;4914492;29;20128;-66
2021/04/23 11:13:25;;;;;;;16.33;7.95;;;;;;;;;;4899976;29;20044;-67
2021/04/23 11:16:10;;;;;;;15.32;7.47;;;;;;;;;;4913642;29;20476;-68
2021/04/23 11:18:36;;;;;;;17.45;7.78;;;;;;;;;;4913675;29;20036;-69
2021/04/23 11:21:20;;;;;;;16.67;7.30;;;;;;;;;;4913806;29;20449;-66
2021/04/23 11:24:05;;;;;;;17.00;8.10;;;;;;;;;;4913863;29;20024;-69
2021/04/23 11:26:51;;;;;;;16.42;8.50;;;;;;;;;;4913590;29;20070;-65
2021/04/23 11:29:26;;;;;;;15.65;7.70;;;;;;;;;;4913864;29;20137;-65
2021/04/23 11:32:11;;;;;;;14.98;7.47;;;;;;;;;;4916185;29;20032;-68
2021/04/23 11:34:43;;;;;;;14.80;7.53;;;;;;;;;;4917191;29;20730;-67
2021/04/23 11:37:21;;;;;;;16.48;7.88;;;;;;;;;;4917562;29;20029;-66
2021/04/23 11:39:48;;;;;;;17.73;7.72;;;;;;;;;;4917641;29;20060;-68
2021/04/23 11:42:16;;;;;;;15.77;7.05;;;;;;;;;;4917225;29;20028;-63
2021/04/23 11:44:44;;;;;;;14.38;6.13;;;;;;;;;;4917506;29;20035;-64
2021/04/23 11:47:10;;;;;;;12.55;7.05;;;;;;;;;;4916624;29;20031;-69
2021/04/23 11:49:37;;;;;;;14.90;6.55;;;;;;;;;;4917452;29;20518;-67
2021/04/23 11:52:03;;;;;;;12.98;7.57;;;;;;;;;;4917351;29;20115;-68
2021/04/23 11:54:29;;;;;;;16.92;7.20;;;;;;;;;;4917258;29;20035;-69
2021/04/23 11:56:56;;;;;;;20.10;8.00;;;;;;;;;;4917123;29;20460;-70
2021/04/23 11:59:22;;;;;;;20.52;8.20;;;;;;;;;;4917294;29;20484;-68
2021/04/23 12:01:48;;;;;;;17.13;8.65;;;;;;;;;;4916904;29;20039;-68
2021/04/23 12:04:14;;;;;;;22.10;8.52;;;;;;;;;;4917027;29;20365;-67
2021/04/23 12:06:40;;;;;;;15.27;7.95;;;;;;;;;;4917360;29;20037;-68
2021/04/23 12:09:19;;;;;;;15.07;7.10;;;;;;;;;;4917178;29;20020;-65
2021/04/23 12:11:45;;;;;;;12.45;6.47;;;;;;;;;;4916975;29;20028;-67
2021/04/23 12:14:11;;;;;;;13.25;5.68;;;;;;;;;;4917182;29;20028;-67
2021/04/23 12:16:37;;;;;;;13.20;6.38;;;;;;;;;;4916816;29;20043;-67
2021/04/23 12:19:03;;;;;;;14.93;7.30;;;;;;;;;;4916787;29;20028;-68
2021/04/23 12:21:29;;;;;;;13.95;6.65;;;;;;;;;;4915095;29;20400;-66
2021/04/23 12:23:56;;;;;;;14.10;6.28;;;;;;;;;;4916666;29;20032;-66
2021/04/23 12:26:22;;;;;;;15.25;6.78;;;;;;;;;;4916670;29;20027;-67
2021/04/23 12:28:50;;;;;;;15.13;6.18;;;;;;;;;;4916576;29;20123;-65
2021/04/23 12:31:17;;;;;;;20.83;6.40;;;;;;;;;;4914221;29;20031;-65
2021/04/23 12:33:51;;;;;;;17.67;5.65;;;;;;;;;;4913566;29;20067;-67
2021/04/23 12:36:20;;;;;;;11.48;5.55;;;;;;;;;;4916308;29;20032;-67
2021/04/23 12:38:48;;;;;;;11.55;5.72;;;;;;;;;;4916461;29;20468;-67
2021/04/23 12:41:15;;;;;;;15.32;6.65;;;;;;;;;;4916042;29;20051;-67
2021/04/23 12:43:41;;;;;;;15.10;5.53;;;;;;;;;;4915047;29;20315;-66
2021/04/23 12:46:08;;;;;;;14.55;6.95;;;;;;;;;;4916123;29;20032;-67
2021/04/23 12:48:34;;;;;;;13.55;6.53;;;;;;;;;;4907950;29;20033;-66
2021/04/23 12:51:00;;;;;;;14.73;6.15;;;;;;;;;;4897368;29;20032;-68
2021/04/23 12:53:26;;;;;;;13.82;5.80;;;;;;;;;;4897100;29;20587;-66
2021/04/23 12:55:54;;;;;;;12.80;7.10;;;;;;;;;;4897261;29;20033;-69
2021/04/23 12:58:20;;;;;;;11.90;5.53;;;;;;;;;;4896822;29;20123;-66
2021/04/23 13:00:46;;;;;;;12.15;5.47;;;;;;;;;;4896518;29;20035;-68
2021/04/23 13:03:12;;;;;;;11.07;5.55;;;;;;;;;;4897328;29;20040;-69
2021/04/23 13:05:42;;;;;;;12.50;5.45;;;;;;;;;;4897236;29;20033;-68
2021/04/23 13:08:09;;;;;;;11.82;4.50;;;;;;;;;;4897295;29;20047;-70
2021/04/23 13:10:41;;;;;;;13.50;5.00;;;;;;;;;;4896809;29;20039;-67
2021/04/23 13:13:10;;;;;;;11.23;5.10;;;;;;;;;;4897181;29;20025;-67
2021/04/23 13:15:44;;;;;;;12.77;5.15;;;;;;;;;;4897294;29;20024;-68
2021/04/23 13:18:23;;;;;;;11.48;5.10;;;;;;;;;;4897147;29;20044;-68
2021/04/23 13:21:04;;;;;;;14.80;5.03;;;;;;;;;;4897340;29;20025;-66
2021/04/23 13:23:33;;;;;;;12.75;5.07;;;;;;;;;;4896696;29;20028;-67
2021/04/23 13:25:59;;;;;;;10.68;5.00;;;;;;;;;;4896925;29;20473;-67
2021/04/23 13:28:26;;;;;;;12.98;5.03;;;;;;;;;;4897056;29;20306;-67
2021/04/23 13:30:53;;;;;;;11.82;5.57;;;;;;;;;;4896011;29;20024;-67
2021/04/23 13:33:22;;;;;;;12.60;5.22;;;;;;;;;;4905359;29;20079;-68
2021/04/23 13:35:52;;;;;;;14.60;5.22;;;;;;;;;;4911908;29;20420;-69
2021/04/23 13:38:25;;;;;;;15.20;5.38;;;;;;;;;;4915418;29;20665;-68
2021/04/23 13:40:52;;;;;;;13.30;5.72;;;;;;;;;;4915012;29;20028;-69
2021/04/23 13:43:19;;;;;;;12.55;5.15;;;;;;;;;;4915502;29;20036;-66
2021/04/23 13:46:02;;;;;;;9.25;4.93;;;;;;;;;;4915489;29;20165;-68
2021/04/23 13:48:29;;;;;;;10.70;4.75;;;;;;;;;;4915114;29;20463;-65
2021/04/23 13:50:56;;;;;;;10.80;4.70;;;;;;;;;;4914811;29;20028;-67
2021/04/23 13:53:29;;;;;;;11.40;4.80;;;;;;;;;;4915262;29;20369;-66
2021/04/23 13:56:03;;;;;;;13.95;5.38;;;;;;;;;;4914747;29;20108;-66
2021/04/23 13:58:29;;;;;;;12.05;4.95;;;;;;;;;;4910650;29;20039;-66
2021/04/23 14:00:58;;;;;;;9.95;4.45;;;;;;;;;;4914731;29;20048;-66
2021/04/23 14:03:24;;;;;;;11.15;4.20;;;;;;;;;;4915116;29;20080;-66
2021/04/23 14:05:50;;;;;;;10.15;4.18;;;;;;;;;;4914439;29;20024;-66
2021/04/23 14:08:17;;;;;;;14.48;4.85;;;;;;;;;;4909459;29;20035;-65
2021/04/23 14:10:44;;;;;;;9.50;4.40;;;;;;;;;;4914798;29;20039;-66
2021/04/23 14:13:10;;;;;;;9.98;3.95;;;;;;;;;;4914413;29;20067;-66
2021/04/23 14:15:37;;;;;;;12.85;3.92;;;;;;;;;;4914812;29;20028;-65
2021/04/23 14:18:04;;;;;;;9.60;4.38;;;;;;;;;;4914793;29;20253;-67
2021/04/23 14:20:30;;;;;;;13.80;4.90;;;;;;;;;;4914814;29;20107;-67
2021/04/23 14:22:57;;;;;;;16.23;4.50;;;;;;;;;;4914391;29;20036;-66
2021/04/23 14:25:23;;;;;;;7.97;3.75;;;;;;;;;;4914820;29;20056;-67